Chaleur - Miscou: Past 24 Hour Conditions

 

St. Anthony Airport

02:30 PM NDT 24 July 2014
This table is a summary of hourly weather conditions for the past 24 hours.
Date / Time
(NDT)
Wind(knots) Conditions Visibility(km) Pressure(kPa) Air tempC) Relative humidity(%) Dew pointC) Humidex
24 July 2014
14:30 SW 16 gust 23 Sunny 16 100.5 22 50 11 *
13:30 WSW 14 gust 21 Sunny 16 100.4 20 59 12 *
12:30 WSW 14 gust 20 Partly Cloudy 16 100.4 19 67 13 *
11:30 SW 11 gust 16 Sunny 16 100.4 18 75 14 *
10:30 WSW 11 gust 16 Sunny 16 100.3 17 83 15 *
9:30 WSW 14 Mainly Sunny 16 100.3 17 90 15 *
8:30 WSW 18 Mainly Sunny 15 100.2 17 90 16 *
7:30 SW 15 gust 21 Cloudy 11 100.1 18 92 17 *
6:30 SW 20 gust 26 Mostly Cloudy 15 100.0 19 90 17 *
5:30 SW 10 gust 15 Mist 10 99.9 19 92 18 *
4:30 SW 11 gust 17 Cloudy 11 99.9 20 92 18 *
3:30 SW 15 gust 22 Light Rain 8 99.9 20 91 18 *
2:30 SW 11 gust 17 Cloudy 16 99.9 21 82 18 28
1:30 SSW 7 Mainly Clear 16 99.9 21 83 18 27
0:30 SW 13 gust 19 Mostly Cloudy 16 99.9 22 79 18 28
23 July 2014
23:30 SW 8 Cloudy 16 100.0 22 76 18 28
22:30 SSW 6 Mainly Clear 16 100.0 21 78 17 27
21:30 SW 9 Clear 16 100.1 22 76 18 28
20:30 E 3 Sunny 16 100.1 20 83 17 *
19:30 SSE 3 Sunny 16 100.1 23 73 18 30
18:30 WSW 6 Partly Cloudy 16 100.1 23 75 19 30
17:30 SW 8 Sunny 16 100.1 25 68 19 32
16:30 SW 13 Mostly Cloudy 16 100.2 25 67 19 32
15:30 WSW 12 Mostly Cloudy 16 100.2 25 68 19 31
14:30 WSW 16 gust 21 Sunny 16 100.2 24 69 18 30
 
Map of Atlantic - Newfoundland marine weather areas Southwestern Grand Banks - 44138 Banquereau - 44139 Tail of the Bank - 44140 Nickerson Bank - 44251 Northeast Burgeo Bank - 44255 Blanc-Sablon Airport Cap Whittle Chevery Natashquan Airport Heath Point Miscou Island Grand Étang Ingonish Beach North Mountain St.Paul Island J.A. Douglas McCurdy Sydney Airport Charlottetown Airport East Point North Cape Argentia Bonavista Burgeo Cape Race Corner Brook Daniel's Harbour Englee Ferolle Point La Scie Port aux Basques Rocky Harbour Sagona Island St. Anthony Airport St. John's Int'l Airport St. Lawrence Stephenville Airport Twillingate Winterland Wreckhouse Cartwright Airport Mary's Harbour Grates Cove Pool's Island Marticot Island Long Pond Îles de la Madeleine Airport
Legend: buoyBuoy land stationLand Station